Fédération internationale de Ski
Member Section
Print

OFFICIAL RESULTS

Kope (SLO) 14.02.2013

National Junior Championships - Men's Downhill

Race codex : 1192
Valid for FIS Points : YES
Jury
TD FIS AUERNIG PETER AUT
Referee B.BOZIC B.BOZIC SLO
Assistant Referee T.PLATOVSEK T.PLATOVSEK SLO
Chief of Race M.RATAJ M.RATAJ SLO
Technical Data
Start Altitude m.
Finish Altitude m.
Vertical Drop 0 m.
Course Length m.
Homologation Number 9189/003/09
Run 1
Course Setter
Number of Gates 27
Start Time
Run 2
Course Setter
Number of Gates
Turning Gates
Start Time
 
Show more info»

Competitors

Display filter form
Rank Bib FIS Code Name Year Nation Total Time Diff. FIS Points
 1  7  53968 BERTHOLD Frederic  1991  AUT   1:17.40     10.58
 2  14  220695 CRAWFORD Douglas  1987  GBR   1:17.45  +0.05  11.47
 3  4  481705 GLEBOV Alexander  1983  RUS   1:17.51  +0.11  12.53
 4  6  53981 KROELL Johannes  1991  AUT   1:17.66  +0.26  15.18
 5  5  560447 SPORN Andrej  1981  SLO   1:17.82  +0.42  18.01
 6  9  54005 STRIEDINGER Otmar  1991  AUT   1:17.86  +0.46  18.72
 7  3  561216 KLINE Bostjan  1991  SLO   1:17.92  +0.52  19.78
 8  25  561255 CATER Martin  1992  SLO   1:18.45  +1.05  29.17
 9  8  53837 KRAMER Manuel  1989  AUT   1:18.61  +1.21  32.00
 10  12  202196 BRANDNER Klaus  1990  GER   1:19.23  +1.83  42.97
 11  11  54117 HOERL Christopher  1989  AUT   1:19.31  +1.91  44.39
 12  2  202291 AICHER Lukas  1991  GER   1:19.38  +1.98  45.63
 13  31  550022 RODE Roberts  1987  LAT   1:19.52  +2.12  48.10
 14  15  202323 LINDEBNER Anton  1991  GER   1:19.64  +2.24  50.23
 15  29  92570 GEORGIEV Svetoslav  1991  BUL   1:19.80  +2.40  53.06
 16  18  202424 FERSTL Christian  1992  GER   1:19.85  +2.45  53.95
 17  41  54209 KRENN Christoph  1994  AUT   1:19.92  +2.52  55.18
 18  10  220874 BALDWIN TJ  1990  GBR   1:19.99  +2.59  56.42
 19  63  92638 VARBANOV Stoyan  1993  BUL   1:20.06  +2.66  57.66
 20  13  54216 LINTSCHINGER Philipp  1994  AUT   1:20.10  +2.70  58.37
 21  20  380341 ULLRICH Max  1994  CRO   1:20.19  +2.79  59.96
 22  16  6290703 BATTOCCHI Matteo  1993  ITA   1:20.21  +2.81  60.32
 23  34  561310 HROBAT Miha  1995  SLO   1:20.28  +2.88  61.56
 24  17  6290662 RABANSER Alexander  1993  ITA   1:20.33  +2.93  62.44
 25  30  561214 DEBELAK Tilen  1991  SLO   1:20.35  +2.95  62.80
 26  22  202469 RENZ Fabio  1992  GER   1:20.39  +2.99  63.50
 27  23  561197 OGORELC Blaz  1990  SLO   1:20.46  +3.06  64.74
 28  37  561278 REICH - POGLADIC Andraz  1993  SLO   1:20.48  +3.08  65.10
 29  32  6290278 DONEDDU Alessandro  1992  ITA   1:20.56  +3.16  66.51
 30  1  561199 SOVIC Tomaz  1990  SLO   1:20.61  +3.21  67.40
 31  24  54208 JAEGERSBERGER Jakob  1994  AUT   1:20.77  +3.37  70.23
 32  26  561279 KREJAC Klemen  1993  SLO   1:20.87  +3.47  72.00
 33  38  942023 TAHIRI Albin  1989  KOS   1:21.00  +3.60  74.30
 34  46  6290639 DE CANDIDO Francesco  1993  ITA   1:21.04  +3.64  75.01
 35  19  54302 KNAUSS Mario  1995  AUT   1:21.05  +3.65  75.19
 36  27  910003 LINDNER Georg  1983  MDA   1:21.36  +3.96  80.67
 37  58  561291 GROSELJ Zan  1993  SLO   1:21.49  +4.09  82.97
 37  49  561294 VIDIC Luka  1994  SLO   1:21.49  +4.09  82.97
 39  48  561292 BLAZNIK Andraz  1994  SLO   1:21.56  +4.16  84.21
 40  62  561332 RUPNIK Job  1996  SLO   1:21.65  +4.25  85.81
 41  40  150852 WALIGORA Michael  1990  CZE   1:21.82  +4.42  88.82
 42  66  430460 SZCZEPANIK Wojciech  1988  POL   1:21.90  +4.50  90.23
 43  36  6290980 PASINI Giovanni  1994  ITA   1:21.96  +4.56  91.29
 44  39  180729 SVENSK Mikael  1994  FIN   1:22.16  +4.76  94.83
 45  53  561299 ROBIC Sergij  1994  SLO   1:22.18  +4.78  95.19
 46  21  670052 KHUBER Martin  1992  KAZ   1:22.23  +4.83  96.07
 47  35  180721 PLANTING Conrad  1994  FIN   1:22.63  +5.23  103.15
 48  61  700915 BROZMAN Branislav  1996  SVK   1:22.72  +5.32  104.75
 49  45  460071 ACHIRILOAIE Ioan Valeriu  1990  ROU   1:22.89  +5.49  107.75
 50  56  561333 LIHTENEGER VIDMAJER Jon  1996  SLO   1:22.94  +5.54  108.64
 51  44  561304 CAS Jure  1994  SLO   1:23.09  +5.69  111.29
 52  54  400236 ROEL Patrick  1992  NED   1:23.21  +5.81  113.42
 53  51  150999 VAVRINEC Jan  1983  CZE   1:23.24  +5.84  113.95
 54  43  561311 STERLE Nik  1995  SLO   1:23.43  +6.03  117.31
 55  28  54323 UNTERWIESER Roman  1995  AUT   1:23.62  +6.22  120.68
 56  69  400259 MOLENAAR Dean  1994  NED   1:23.64  +6.24  121.03
 57  55  700875 PAVELKA Matus  1993  SVK   1:23.70  +6.30  122.09
 58  50  303679 ICHINOMOTO Tomoki  1991  JPN   1:23.82  +6.42  124.22
 59  47  380361 RODES Istok  1996  CRO   1:23.93  +6.53  126.16
 60  57  561315 GOLOB Janez  1995  SLO   1:24.48  +7.08  135.90
 61  52  561334 MLAKAR Maj  1996  SLO   1:24.49  +7.09  136.07
 62  64  700923 PETRIK Tomas  1996  SVK   1:24.57  +7.17  137.49
 63  68  561329 SENCAR Dusan  1996  SLO   1:25.06  +7.66  146.16
 64  65  561353 HOMAN Zan  1996  SLO   1:26.21  +8.81  166.52
 65  60  561316 RUPNIK Domen  1995  SLO   1:27.15  +9.75  183.16
 66  59  561338 LIPNIK Domen  1996  SLO   1:28.65  +11.25  209.71
Did not finish 1st run
   33  561322 HADALIN Stefan  1995  SLO       
Did not start 1st run
   67  561318 JURKOVNIK Urban  1994  SLO       
   42  561314 KUNC Jan  1995  SLO